Casper-Natrona County International Airport
KCPR : now visible

Airfield :











YOU CAN JOIN US ON...

 
LOGIN :

Register | Disclaimer

   EN    FR    IT 

 









Legend :    VFR   Marginal VFR   IFR   Intensive IFR   Very Intensive IFR
Visi :
Ceiling :
>= 8 km
>= 3000ft
5 to 8 km
1000 to 3000 ft
1500m to 5 km
500 to 1000 ft
800 to 1500m
200 to 500 ft
< 800m
< 200 ft
Symbols :   Thunderstorms  Fog  Heavy snow  Heavy precipitations  Wind > 20 kt






- Airport Elevation : 5350 ft
- IATA code : CPR


KCPR - Casper-Natrona County International

CURRENT METAR :
  • 192353Z 10SM OVC055 04/M08 A3025 RMK AO2 SLP262 T00391083 10056 20017 53004

EXPIRED METARs :
  • 192253Z 04010G19KT 10SM OVC055 04/M08 A3024 RMK AO2 SLP256 T00391083
  • 192153Z 04010G22KT 10SM OVC050 04/M08 A3024 RMK AO2 SLP255 T00391083
  • 192053Z 35007G19KT 310V020 10SM BKN049 04/M08 A3024 RMK AO2 SLP255 T00391078 56005
  • 191953Z 01011G16KT 10SM BKN047 03/M08 A3024 RMK AO2 SLP255 T00331083

TAF KCPR
Valid from the 20 at 00:00 until the 21 at 00:00 UTC


192320Z 2000/2024 04013KT P6SM SCT060 BKN110
FM200600 06009KT P6SM SCT050 BKN090
FM201500 08009KT P6SM SCT100 SCT200
KZDV FIR / North America



MET'MAP, your aeronautical weather chart ! - Copyright ORBIFLY December 2007 - Disclaimer

ORBIFLY MET'MAP TEAM :

Programming & Development : Alexandra Zaïnal
Original concept : Baudouin d'Aumeries
Technical & hardware support : Manuel Goepfert
Assistance : Marc-Olivier Méhu




SOURCES & CREDITS :

   NOAA       Earth
Advisory